KNUW/NUW METAR and TAF weather

Enter ICAO airport designator
Station Type Date Time Source
KNUW METAR 2021/02/28 02:56 UTC NOAA

KNUW 280256Z 29010KT 10SM -RA SCT038 BKN046 BKN060 OVC130 07/01 A3032 RMK AO2 RAB51 SLP266 P0000 60000 T00720011 53002 $


Station Type Date Time Source
KNUW Decoded METAR 2021/02/28 02:56 UTC NOAA

NAS WHIDBEY ISLAND, WA, United States (KNUW) 48-21N 122-39W 8M
Feb 27, 2021 - 09:56 PM EST / 2021.02.28 0256 UTC
Wind: from the WNW (290 degrees) at 12 MPH (10 KT):0
Visibility: 10 mile(s):0
Sky conditions: overcast
Weather: light rain
Precipitation last hour: A trace
Temperature: 45.0 F (7.2 C)
Dew Point: 34.0 F (1.1 C)
Relative Humidity: 65%
Pressure (altimeter): 30.32 in. Hg (1026 hPa)
Pressure tendency: 0.01 inches (0.2 hPa) higher than three hours ago
ob: KNUW 280256Z 29010KT 10SM -RA SCT038 BKN046 BKN060 OVC130 07/01 A3032 RMK AO2 RAB51 SLP266 P0000 60000 T00720011 53002
cycle: 3

Station Type Date Time Source
KNUW TAF 2021/02/27 23:06 UTC NOAA

TAF KNUW 2723/2823 15009KT 9999 SCT050 BKN140 BKN200 QNH3026INS
FM280200 15009KT 9999 VCSH SCT020 BKN050 BKN120 OVC200 640509 641404 QNH3027INS
TEMPO 2802/2807 9999 -SHRA BKN020 BKN050 OVC100
FM280700 15009KT 9999 VCSH BKN015 BKN050 OVC100 640309 641206 QNH3023INS
TEMPO 2807/2813 15012G18KT 9000 -SHRA BKN008 BKN015 OVC050
FM281300 14009KT 9999 VCSH SCT012 BKN020 OVC050 640306 QNH3024INS
FM282100 14010KT 9999 SCT015 BKN030 BKN200 600000 QNH3020INS T05/2813Z T11/2822Z FS30020

Example: see airport list